Kezdőlap
METAR-TAF:

METAR-TAF

Repülőterek :

Berlevåg, Norvégia

földrajzi szélesség: 70-52N, földrajzi hosszúság: 029-02E, magasság: 1 m

Jelenlegi meteorológiai megfigyelések

A jelentés 7 órával és 56 perccel ezelõtt készült, 20:50 UTC
Délnyugati szél 11 kt
Hőmérséklet 1°C
Páratartalom 80%
Légköri nyomás 985 hPa
Látótávolság 10 km, vagy több
felhőtlen 1500 m magasságban, és nincs gomolyfelhõ

METAR: ENBV 222050Z 23011KT CAVOK 01/M02 Q0985

Idő: 06:46 (04:46 UTC)

Előrejelzés

A jelentés 17 órával és 46 perccel ezelõtt készült, 11:00 UTC
Az előrejelzés 22-én 12 óra UTC és 22-én 21 óra UTC között érvényes
Délnyugati szél 12 kt
Látótávolság 10 km, vagy több
Szórványos felhőzet 1000 lábon
Valószínűség 30%
22-én 12 óra UTC és 22-én 15 óra UTC között
Szakadozott felhőzet 900 lábon

TAF: ENBV 221100Z 2212/2221 22012KT 9999 SCT010 PROB30 2212/2215 BKN009

Meteorológiai megfigyelések és előrejelzések több, mint 4000 repülőtéren (METAR és TAF jelentéseket).

A térképen piros és sárga pontok jelzik az elérhető meteorológiai állomásokat.

Mozgassa az egeret a pont fölött, hogy megjelenjen az állomás neve.

Azután kattintson az időjárási megfigyelések és előrejelzések megtekintéséhez.

A térkép megváltoztatása: kattintson a fekete keresztel jelölt zöld gombra ráközelítéshez, a vonallal jelölt zöld gombra távolításhoz, vagy a zöld nyilakra a szomszédos térképek eléréséhez.


METAR-TAF: